Pagina principale
METAR-TAF:

METAR-TAF

Aeroporti :

Kassel, Germania

latitudine: 51-24N, longitudine: 009-23E, altezza: 277 m

Osservazione

Il bollettino è stato emesso 20 minuti fa, alle 11:20 UTC
Vento 15 kt da sud
Temperature 4°C
Umidità 81%
Pressione 1001 hPa
Visibilità 10 km o più
Nubi sparse ad un'altezza di 1500 ft
Nuvoloso ad un'altezza di 4300 ft

METAR: EDVK 131120Z 19015KT 9999 SCT015 BKN043 04/01 Q1001

Ora: 12:40 (11:40 UTC)

Previsione

Il bollettino è stato emesso 3 ore e 40 minuti fa, alle 08:00 UTC
Previsione valida dal 13 alle 09 UTC al 13 alle 18 UTC
Vento 9 kt da sud
Visibilità 10 km o più
Cielo coperto ad un'altezza di 1300 ft
Evoluzione graduale
dal 13 alle 09 UTC al 13 alle 10 UTC
Nuvoloso ad un'altezza di 1500 ft

TAF: EDVK 130800Z 1309/1318 19009KT 9999 OVC013 BECMG 1309/1310 BKN015

Osservazioni e previsioni meteorologiche di più di 4000 aeroporti (messaggi METAR e TAF).

Le stazioni disponibili sono rappresentate dai dischi gialli e rossi sulla carta.

Puntare il mouse per vedere il nome della stazione.

Clicca sopra per visualizzare le osservazioni e previsioni meteorologiche.

Per cambiare la mappa : fare clic sui pulsanti verdi con una croce nera per ingrandire, il pulsante verde con un trattino per diminuire, o sulla freccia verde per le mappe adiacenti.


METAR-TAF: